createdAt,value
2022-11-04T00:01:46.120Z,89.13
2022-11-04T00:04:17.115Z,88.90
2022-11-04T00:06:44.283Z,89.18
2022-11-04T00:09:15.741Z,89.35
2022-11-04T00:12:00.916Z,89.10
2022-11-04T00:14:31.880Z,89.23
2022-11-04T00:17:20.458Z,89.33
2022-11-04T00:20:08.321Z,89.12
2022-11-04T00:22:54.735Z,89.01
2022-11-04T00:28:35.703Z,89.55
2022-11-04T00:31:22.562Z,89.45
2022-11-04T00:33:56.410Z,89.26
2022-11-04T00:36:26.730Z,88.83
2022-11-04T00:38:53.774Z,89.32
2022-11-04T00:41:26.630Z,89.24
2022-11-04T00:43:54.093Z,89.22
2022-11-04T00:46:20.957Z,89.30
2022-11-04T00:48:48.322Z,89.41
2022-11-04T00:51:15.632Z,89.63
2022-11-04T00:53:42.324Z,89.35
2022-11-04T00:56:11.779Z,89.37
2022-11-04T00:58:38.396Z,89.57
2022-11-04T01:01:13.121Z,89.59
2022-11-04T01:03:40.007Z,89.24
2022-11-04T01:06:06.919Z,89.71
2022-11-04T01:08:36.292Z,89.31
2022-11-04T01:11:07.976Z,89.39
2022-11-04T01:13:35.206Z,89.69
2022-11-04T01:16:03.945Z,89.62
2022-11-04T01:18:30.556Z,89.57
2022-11-04T01:21:04.671Z,89.69
2022-11-04T01:23:35.143Z,89.70
2022-11-04T01:26:01.811Z,89.63
2022-11-04T01:28:28.684Z,89.40
2022-11-04T01:30:55.232Z,89.36
2022-11-04T01:33:21.765Z,89.44
2022-11-04T01:35:48.312Z,89.76
2022-11-04T01:38:14.875Z,89.62
2022-11-04T01:40:41.568Z,89.66
2022-11-04T01:43:18.728Z,89.64
2022-11-04T01:45:52.319Z,89.76
2022-11-04T01:48:31.215Z,89.61
2022-11-04T01:50:59.534Z,89.57
2022-11-04T01:53:34.663Z,89.35
2022-11-04T01:56:11.824Z,89.65
2022-11-04T01:58:48.454Z,89.41
2022-11-04T02:01:15.233Z,89.74
2022-11-04T02:03:51.950Z,89.39
2022-11-04T02:06:22.676Z,89.68
2022-11-04T02:08:49.596Z,89.64
2022-11-04T02:11:36.381Z,89.92
2022-11-04T02:14:03.261Z,89.98
2022-11-04T02:16:40.226Z,89.72
2022-11-04T02:19:34.257Z,89.92
2022-11-04T02:22:16.053Z,90.10
2022-11-04T02:25:11.714Z,90.05
2022-11-04T02:28:02.636Z,90.24
2022-11-04T02:30:38.649Z,90.29
2022-11-04T02:33:32.659Z,90.39
2022-11-04T02:36:30.378Z,90.03
2022-11-04T02:39:35.167Z,89.79
2022-11-04T02:42:13.312Z,90.13
2022-11-04T02:44:53.258Z,90.27
2022-11-04T02:47:24.163Z,90.05
2022-11-04T02:49:53.017Z,90.09
2022-11-04T02:52:27.113Z,90.46
2022-11-04T02:55:00.796Z,89.89
2022-11-04T02:57:31.724Z,90.26
2022-11-04T03:00:06.035Z,90.33
2022-11-04T03:02:52.136Z,90.08
2022-11-04T03:05:25.883Z,90.08
2022-11-04T03:07:56.449Z,90.02
2022-11-04T03:10:34.434Z,90.36
2022-11-04T03:13:11.516Z,90.06
2022-11-04T03:15:42.815Z,90.10
2022-11-04T03:18:34.938Z,90.31
2022-11-04T03:21:04.608Z,89.74
2022-11-04T03:23:32.083Z,90.24
2022-11-04T03:26:11.849Z,90.13
2022-11-04T03:28:50.555Z,90.07
2022-11-04T03:31:39.686Z,89.74
2022-11-04T03:34:06.310Z,90.56
2022-11-04T03:36:32.870Z,90.07
2022-11-04T03:38:59.442Z,90.34
2022-11-04T03:41:34.232Z,90.17
2022-11-04T03:44:00.971Z,90.02
2022-11-04T03:46:28.012Z,90.32
2022-11-04T03:48:55.751Z,90.44
2022-11-04T03:51:22.396Z,90.67
2022-11-04T03:53:49.130Z,90.20
2022-11-04T03:56:25.254Z,90.14
2022-11-04T03:59:12.213Z,90.51
2022-11-04T04:01:47.824Z,90.20
2022-11-04T04:04:39.002Z,90.35
2022-11-04T04:07:50.756Z,90.18
2022-11-04T04:10:40.693Z,90.51
2022-11-04T04:13:20.188Z,90.48
2022-11-04T04:15:52.555Z,90.37
2022-11-04T04:18:27.499Z,90.38
2022-11-04T04:20:57.457Z,89.97
2022-11-04T04:23:48.119Z,90.74
2022-11-04T04:26:34.477Z,90.62
2022-11-04T04:29:03.744Z,90.62
2022-11-04T04:31:51.509Z,90.27
2022-11-04T04:34:27.474Z,90.53
2022-11-04T04:37:19.002Z,90.39
2022-11-04T04:40:09.602Z,90.35
2022-11-04T04:42:55.923Z,90.80
2022-11-04T04:45:38.323Z,90.36
2022-11-04T04:48:05.850Z,90.43
2022-11-04T04:50:40.834Z,90.46
2022-11-04T04:53:07.907Z,90.67
2022-11-04T04:55:39.036Z,90.54
2022-11-04T04:58:09.032Z,90.95
2022-11-04T05:00:35.636Z,90.62
2022-11-04T05:03:02.211Z,90.91
2022-11-04T05:05:29.106Z,91.02
2022-11-04T05:07:55.691Z,90.80
2022-11-04T05:10:22.341Z,90.91
2022-11-04T05:13:27.251Z,90.72
2022-11-04T05:15:53.980Z,90.69
2022-11-04T05:18:20.907Z,90.80
2022-11-04T05:20:47.492Z,90.42
2022-11-04T05:23:14.813Z,90.47
2022-11-04T05:25:41.884Z,90.42
2022-11-04T05:28:09.138Z,90.79
2022-11-04T05:30:36.378Z,90.58
2022-11-04T05:33:04.974Z,90.90
2022-11-04T05:35:32.844Z,91.01
2022-11-04T05:37:59.667Z,90.37
2022-11-04T05:40:26.501Z,91.31
2022-11-04T05:42:53.094Z,90.80
2022-11-04T05:45:19.706Z,90.62
2022-11-04T05:47:46.305Z,90.81
2022-11-04T05:50:12.896Z,90.87
2022-11-04T05:52:39.622Z,91.38
2022-11-04T05:55:06.606Z,91.11
2022-11-04T05:57:33.256Z,91.30
2022-11-04T05:59:59.807Z,90.80
2022-11-04T06:02:26.502Z,91.34
2022-11-04T06:04:53.159Z,90.90
2022-11-04T06:07:19.724Z,91.09
2022-11-04T06:09:46.296Z,90.86
2022-11-04T06:12:15.168Z,90.86
2022-11-04T06:14:42.581Z,91.06
2022-11-04T06:17:14.365Z,91.06
2022-11-04T06:19:40.931Z,91.37
2022-11-04T06:22:08.443Z,90.88
2022-11-04T06:24:35.032Z,90.88
2022-11-04T06:27:01.588Z,90.59
2022-11-04T06:29:28.214Z,91.25
2022-11-04T06:31:54.898Z,90.65
2022-11-04T06:34:21.490Z,90.49
2022-11-04T06:36:49.611Z,90.59
2022-11-04T06:39:16.504Z,90.44
2022-11-04T06:41:43.435Z,90.70
2022-11-04T06:44:10.762Z,90.96
2022-11-04T06:46:39.911Z,90.63
2022-11-04T06:49:09.744Z,90.46
2022-11-04T06:51:36.367Z,90.89
2022-11-04T06:54:03.470Z,90.65
2022-11-04T06:56:30.276Z,90.36
2022-11-04T06:58:57.228Z,90.59
2022-11-04T07:01:27.804Z,90.95
2022-11-04T07:03:56.617Z,90.62
2022-11-04T07:06:23.435Z,90.56
2022-11-04T07:08:51.333Z,90.48
2022-11-04T07:11:21.223Z,90.26
2022-11-04T07:13:49.083Z,90.78
2022-11-04T07:16:16.453Z,90.77
2022-11-04T07:18:43.140Z,90.68
2022-11-04T07:21:10.547Z,90.42
2022-11-04T07:23:37.527Z,90.67
2022-11-04T07:26:07.152Z,90.78
2022-11-04T07:28:34.251Z,90.20
2022-11-04T07:31:02.079Z,90.62
2022-11-04T07:33:29.506Z,90.45
2022-11-04T07:35:58.247Z,91.00
2022-11-04T07:38:25.134Z,90.66
2022-11-04T07:40:51.719Z,90.70
2022-11-04T07:43:18.532Z,90.33
2022-11-04T07:45:45.126Z,90.54
2022-11-04T07:48:12.522Z,90.64
2022-11-04T07:50:40.643Z,90.73
2022-11-04T07:53:07.806Z,90.70
2022-11-04T07:55:42.065Z,90.59
2022-11-04T07:58:10.229Z,90.59
2022-11-04T08:00:36.772Z,90.68
2022-11-04T08:03:03.553Z,90.11
2022-11-04T08:05:30.192Z,90.56
2022-11-04T08:07:57.714Z,90.57
2022-11-04T08:10:24.466Z,90.24
2022-11-04T08:12:52.301Z,90.18
2022-11-04T08:15:18.895Z,90.31
2022-11-04T08:17:45.499Z,90.40
2022-11-04T08:20:12.416Z,90.27
2022-11-04T08:22:39.195Z,90.12
2022-11-04T08:25:06.379Z,89.71
2022-11-04T08:27:34.363Z,89.49
2022-11-04T08:30:00.917Z,90.09
2022-11-04T08:32:27.483Z,89.93
2022-11-04T08:34:54.039Z,89.46
2022-11-04T08:37:20.639Z,90.18
2022-11-04T08:39:47.260Z,89.75
2022-11-04T08:42:13.911Z,89.43
2022-11-04T08:44:40.616Z,89.69
2022-11-04T08:47:07.199Z,89.46
2022-11-04T08:49:50.750Z,89.45
2022-11-04T08:52:18.015Z,89.10
2022-11-04T08:54:47.710Z,89.15
2022-11-04T08:57:14.370Z,88.92
2022-11-04T08:59:41.274Z,89.36
2022-11-04T09:02:13.874Z,88.96
2022-11-04T09:04:40.519Z,88.63
2022-11-04T09:07:08.390Z,88.50
2022-11-04T09:09:35.406Z,88.49
2022-11-04T09:12:01.970Z,88.62
2022-11-04T09:14:29.048Z,88.38
2022-11-04T09:16:56.152Z,88.33
2022-11-04T09:19:23.944Z,88.00
2022-11-04T09:21:50.885Z,87.53
2022-11-04T09:24:17.640Z,87.51
2022-11-04T09:26:44.785Z,87.16
2022-11-04T09:29:11.428Z,86.81
2022-11-04T09:31:38.464Z,86.50
2022-11-04T09:34:05.040Z,86.17
2022-11-04T09:36:31.674Z,86.10
2022-11-04T09:38:58.309Z,85.95
2022-11-04T09:41:55.792Z,85.63
2022-11-04T09:44:31.503Z,85.53
2022-11-04T09:47:02.267Z,85.19
2022-11-04T09:49:42.448Z,85.33
2022-11-04T09:52:18.841Z,85.18
2022-11-04T09:55:02.867Z,84.90
2022-11-04T09:57:29.707Z,84.77
2022-11-04T09:59:58.064Z,84.40
2022-11-04T10:02:55.589Z,83.98
2022-11-04T10:05:40.548Z,83.72
2022-11-04T10:08:16.735Z,83.37
2022-11-04T10:11:11.506Z,82.93
2022-11-04T10:14:02.864Z,82.86
2022-11-04T10:16:56.628Z,82.31
2022-11-04T10:19:48.393Z,82.04
2022-11-04T10:22:14.947Z,81.79
2022-11-04T10:25:01.307Z,81.44
2022-11-04T10:27:33.379Z,81.55
2022-11-04T10:30:25.757Z,81.00
2022-11-04T10:33:13.947Z,80.74
2022-11-04T10:35:57.231Z,80.85
2022-11-04T10:38:48.729Z,80.91
2022-11-04T10:41:24.562Z,80.72
2022-11-04T10:43:54.492Z,80.68
2022-11-04T10:46:26.699Z,80.18
2022-11-04T10:48:59.352Z,80.26
2022-11-04T10:51:26.216Z,79.97
2022-11-04T10:53:59.004Z,79.76
2022-11-04T10:56:34.738Z,79.69
2022-11-04T10:59:28.795Z,79.72
2022-11-04T11:01:57.930Z,79.57
2022-11-04T11:04:28.084Z,79.10
2022-11-04T11:06:56.951Z,78.46
2022-11-04T11:09:35.893Z,78.22
2022-11-04T11:12:29.480Z,78.43
2022-11-04T11:14:53.652Z,78.13
2022-11-04T11:17:38.385Z,77.94
2022-11-04T11:20:37.765Z,78.02
2022-11-04T11:23:09.889Z,77.95
2022-11-04T11:25:45.302Z,77.92
2022-11-04T11:28:21.475Z,77.99
2022-11-04T11:30:48.157Z,77.85
2022-11-04T11:33:14.694Z,77.66
2022-11-04T11:35:45.437Z,77.60
2022-11-04T11:38:22.496Z,76.95
2022-11-04T11:41:18.767Z,76.95
2022-11-04T11:43:44.443Z,76.95
2022-11-04T11:46:13.067Z,76.89
2022-11-04T11:48:42.907Z,76.96
2022-11-04T11:51:15.131Z,76.44
2022-11-04T11:54:02.863Z,76.49
2022-11-04T11:56:59.139Z,76.80
2022-11-04T12:02:41.664Z,76.54
2022-11-04T12:11:20.090Z,76.58
2022-11-04T12:13:55.993Z,76.82
2022-11-04T12:16:58.753Z,76.79
2022-11-04T12:20:14.957Z,76.77
2022-11-04T12:23:04.898Z,76.59
2022-11-04T12:25:49.507Z,77.00
2022-11-04T12:28:53.774Z,76.77
2022-11-04T12:31:32.295Z,76.78
2022-11-04T12:34:34.391Z,77.03
2022-11-04T12:37:13.200Z,77.01
2022-11-04T12:39:39.742Z,76.83
2022-11-04T12:42:33.226Z,77.04
2022-11-04T12:45:29.189Z,77.05
2022-11-04T12:48:03.883Z,77.10
2022-11-04T12:50:36.739Z,77.02
2022-11-04T12:53:30.157Z,77.06
2022-11-04T12:56:17.711Z,77.13
2022-11-04T12:59:07.111Z,77.06
2022-11-04T13:01:48.470Z,76.94
2022-11-04T13:04:30.124Z,77.04
2022-11-04T13:07:10.242Z,76.87
2022-11-04T13:09:45.721Z,77.06
2022-11-04T13:12:17.036Z,76.88
2022-11-04T13:15:04.531Z,77.23
2022-11-04T13:17:35.688Z,76.73
2022-11-04T13:20:14.492Z,76.55
2022-11-04T13:22:48.361Z,76.65
2022-11-04T13:25:20.742Z,76.58
2022-11-04T13:27:48.319Z,76.58
2022-11-04T13:30:17.570Z,76.32
2022-11-04T13:32:50.356Z,76.45
2022-11-04T13:35:17.815Z,76.42
2022-11-04T13:37:58.816Z,76.57
2022-11-04T13:40:46.534Z,76.39
2022-11-04T13:43:37.992Z,76.33
2022-11-04T13:46:17.802Z,76.66
2022-11-04T13:49:00.147Z,76.68
2022-11-04T13:51:38.879Z,76.72
2022-11-04T13:54:07.743Z,76.78
2022-11-04T13:56:37.747Z,76.85
2022-11-04T13:59:26.663Z,76.92
2022-11-04T14:02:11.701Z,76.83
2022-11-04T14:04:43.290Z,76.94
2022-11-04T14:07:12.652Z,77.25
2022-11-04T14:09:42.246Z,77.09
2022-11-04T14:12:11.601Z,77.19
2022-11-04T14:14:40.156Z,77.07
2022-11-04T14:17:34.827Z,77.34
2022-11-04T14:20:31.390Z,77.27
2022-11-04T14:23:03.727Z,77.70
2022-11-04T14:25:44.416Z,77.85
2022-11-04T14:28:11.036Z,77.91
2022-11-04T14:30:46.763Z,78.00
2022-11-04T14:33:29.866Z,78.22
2022-11-04T14:36:13.489Z,78.12
2022-11-04T14:38:41.445Z,78.34
2022-11-04T14:41:23.057Z,78.10
2022-11-04T14:43:50.765Z,78.39
2022-11-04T14:46:27.751Z,78.42
2022-11-04T14:48:56.999Z,78.40
2022-11-04T14:51:33.836Z,78.50
2022-11-04T14:54:06.920Z,78.25
2022-11-04T14:56:33.767Z,78.72
2022-11-04T14:59:05.459Z,78.64
2022-11-04T15:01:38.148Z,78.80
2022-11-04T15:04:26.992Z,79.22
2022-11-04T15:07:04.703Z,78.75
2022-11-04T15:09:39.631Z,78.80
2022-11-04T15:12:27.863Z,78.95
2022-11-04T15:14:55.116Z,79.23
2022-11-04T15:17:24.448Z,78.90
2022-11-04T15:19:53.240Z,79.24
2022-11-04T15:22:20.454Z,79.13
2022-11-04T15:24:47.194Z,79.48
2022-11-04T15:27:17.396Z,79.85
2022-11-04T15:29:59.238Z,79.70
2022-11-04T15:32:26.690Z,79.37
2022-11-04T15:34:55.489Z,79.23
2022-11-04T15:37:25.207Z,79.53
2022-11-04T15:39:55.572Z,79.32
2022-11-04T15:42:40.428Z,80.09
2022-11-04T15:45:24.952Z,79.81
2022-11-04T15:48:23.551Z,79.31
2022-11-04T15:51:19.374Z,79.68
2022-11-04T15:53:54.820Z,80.04
2022-11-04T15:56:31.585Z,80.10
2022-11-04T15:59:00.417Z,79.93
2022-11-04T16:01:29.188Z,79.35
2022-11-04T16:03:58.878Z,80.30
2022-11-04T16:06:39.923Z,79.51
2022-11-04T16:09:09.406Z,80.19
2022-11-04T16:11:36.061Z,80.65
2022-11-04T16:14:25.198Z,80.14
2022-11-04T16:16:53.159Z,79.95
2022-11-04T16:19:25.958Z,80.24
2022-11-04T16:22:09.706Z,80.36
2022-11-04T16:24:39.350Z,80.57
2022-11-04T16:27:19.012Z,80.36
2022-11-04T16:29:56.928Z,80.98
2022-11-04T16:32:42.042Z,80.73
2022-11-04T16:35:28.098Z,79.84
2022-11-04T16:37:58.504Z,80.71
2022-11-04T16:40:25.656Z,80.23
2022-11-04T16:42:53.523Z,81.06
2022-11-04T16:45:26.145Z,80.84
2022-11-04T16:47:53.675Z,80.87
2022-11-04T16:50:21.038Z,81.46
2022-11-04T16:52:48.043Z,81.20
2022-11-04T16:55:15.652Z,81.49
2022-11-04T16:57:42.557Z,81.33
2022-11-04T17:00:16.703Z,81.57
2022-11-04T17:02:43.293Z,81.54
2022-11-04T17:05:10.544Z,81.64
2022-11-04T17:07:52.801Z,81.52
2022-11-04T17:10:27.354Z,81.48
2022-11-04T17:12:54.283Z,81.77
2022-11-04T17:15:20.881Z,81.93
2022-11-04T17:17:47.483Z,81.22
2022-11-04T17:20:17.815Z,82.14
2022-11-04T17:22:46.740Z,81.56
2022-11-04T17:25:20.465Z,81.83
2022-11-04T17:27:47.515Z,81.92
2022-11-04T17:30:14.486Z,82.19
2022-11-04T17:32:41.948Z,82.48
2022-11-04T17:35:09.406Z,82.19
2022-11-04T17:37:36.040Z,82.13
2022-11-04T17:40:02.970Z,82.30
2022-11-04T17:42:48.148Z,82.30
2022-11-04T17:45:14.754Z,82.29
2022-11-04T17:47:41.454Z,82.22
2022-11-04T17:50:08.790Z,82.23
2022-11-04T17:52:36.633Z,82.52
2022-11-04T17:55:05.259Z,82.34
2022-11-04T17:57:36.100Z,82.21
2022-11-04T18:00:05.736Z,82.38
2022-11-04T18:02:32.965Z,82.41
2022-11-04T18:05:01.768Z,82.27
2022-11-04T18:07:29.163Z,82.77
2022-11-04T18:09:56.615Z,82.90
2022-11-04T18:12:38.928Z,82.87
2022-11-04T18:15:08.774Z,82.81
2022-11-04T18:17:39.791Z,82.99
2022-11-04T18:20:13.997Z,83.09
2022-11-04T18:22:41.667Z,82.71
2022-11-04T18:25:09.165Z,82.87
2022-11-04T18:27:36.207Z,82.88
2022-11-04T18:30:02.939Z,82.98
2022-11-04T18:32:29.519Z,83.43
2022-11-04T18:34:56.108Z,82.63
2022-11-04T18:37:23.249Z,82.74
2022-11-04T18:39:49.880Z,82.79
2022-11-04T18:42:16.449Z,82.81
2022-11-04T18:44:43.123Z,82.71
2022-11-04T18:47:09.731Z,83.21
2022-11-04T18:49:36.344Z,83.41
2022-11-04T18:52:03.064Z,82.70
2022-11-04T18:54:29.605Z,83.14
2022-11-04T18:56:56.182Z,82.95
2022-11-04T18:59:22.927Z,83.45
2022-11-04T19:01:51.719Z,83.13
2022-11-04T19:04:18.631Z,83.24
2022-11-04T19:06:45.557Z,83.09
2022-11-04T19:12:20.472Z,83.20
2022-11-04T19:14:47.229Z,83.45
2022-11-04T19:17:13.976Z,82.75
2022-11-04T19:19:41.287Z,82.81
2022-11-04T19:22:08.384Z,82.66
2022-11-04T19:24:35.065Z,82.65
2022-11-04T19:27:01.670Z,82.05
2022-11-04T19:29:29.557Z,82.32
2022-11-04T19:31:59.360Z,82.61
2022-11-04T19:34:26.112Z,82.45
2022-11-04T19:36:52.978Z,82.36
2022-11-04T19:39:19.539Z,82.28
2022-11-04T19:42:04.808Z,81.92
2022-11-04T19:44:32.244Z,81.57
2022-11-04T19:46:58.941Z,81.78
2022-11-04T19:49:25.631Z,81.95
2022-11-04T19:51:52.177Z,81.53
2022-11-04T19:54:19.212Z,81.38
2022-11-04T19:56:45.856Z,81.73
2022-11-04T19:59:12.597Z,81.44
2022-11-04T20:01:41.883Z,81.69
2022-11-04T20:04:09.422Z,81.60
2022-11-04T20:06:38.913Z,81.78
2022-11-04T20:09:08.144Z,81.44
2022-11-04T20:11:35.569Z,81.49
2022-11-04T20:14:07.853Z,81.45
2022-11-04T20:16:39.526Z,81.31
2022-11-04T20:19:09.452Z,81.54
2022-11-04T20:21:37.209Z,81.66
2022-11-04T20:24:10.143Z,81.65
2022-11-04T20:26:38.130Z,81.52
2022-11-04T20:29:11.836Z,81.98
2022-11-04T20:32:01.640Z,80.95
2022-11-04T20:34:32.895Z,81.85
2022-11-04T20:37:00.508Z,81.67
2022-11-04T20:39:27.099Z,81.78
2022-11-04T20:41:53.768Z,81.74
2022-11-04T20:44:20.470Z,81.51
2022-11-04T20:46:49.034Z,81.21
2022-11-04T20:49:15.607Z,81.45
2022-11-04T20:51:55.180Z,81.35
2022-11-04T20:54:22.400Z,81.39
2022-11-04T20:56:49.105Z,81.34
2022-11-04T20:59:16.724Z,81.29
2022-11-04T21:01:46.456Z,81.46
2022-11-04T21:04:19.001Z,82.16
2022-11-04T21:06:47.715Z,81.53
2022-11-04T21:09:16.034Z,81.59
2022-11-04T21:11:42.967Z,81.59
2022-11-04T21:14:12.747Z,81.66
2022-11-04T21:16:40.260Z,82.08
2022-11-04T21:19:08.068Z,81.92
2022-11-04T21:21:35.276Z,81.65
2022-11-04T21:24:05.025Z,81.72
2022-11-04T21:26:34.346Z,81.34
2022-11-04T21:29:03.934Z,81.26
2022-11-04T21:31:32.444Z,81.30
2022-11-04T21:34:00.226Z,81.09
2022-11-04T21:36:28.608Z,81.44
2022-11-04T21:38:55.833Z,80.93
2022-11-04T21:41:25.380Z,81.30
2022-11-04T21:43:56.855Z,80.98
2022-11-04T21:46:24.382Z,80.92
2022-11-04T21:48:50.976Z,80.82
2022-11-04T21:51:20.598Z,81.09
2022-11-04T21:53:47.181Z,81.07
2022-11-04T21:56:16.508Z,80.88
2022-11-04T21:58:44.208Z,80.89
2022-11-04T22:01:13.586Z,81.22
2022-11-04T22:03:40.774Z,81.17
2022-11-04T22:06:12.864Z,80.59
2022-11-04T22:08:43.240Z,80.99
2022-11-04T22:11:12.435Z,80.54
2022-11-04T22:13:39.092Z,80.10
2022-11-04T22:16:20.710Z,80.63
2022-11-04T22:18:47.625Z,80.63
2022-11-04T22:21:17.356Z,80.92
2022-11-04T22:23:44.980Z,80.66
2022-11-04T22:26:15.345Z,80.29
2022-11-04T22:28:42.193Z,80.02
2022-11-04T22:31:13.674Z,80.47
2022-11-04T22:33:40.621Z,80.60
2022-11-04T22:36:07.734Z,80.62
2022-11-04T22:38:36.114Z,80.06
2022-11-04T22:41:06.194Z,80.46
2022-11-04T22:43:35.296Z,80.06
2022-11-04T22:46:27.729Z,80.42
2022-11-04T22:48:54.611Z,79.80
2022-11-04T22:51:23.390Z,80.29
2022-11-04T22:53:57.707Z,80.39
2022-11-04T22:56:25.736Z,80.06
2022-11-04T22:58:54.241Z,80.42
2022-11-04T23:01:21.499Z,80.31
2022-11-04T23:03:53.080Z,79.92
2022-11-04T23:06:19.969Z,80.04
2022-11-04T23:08:47.400Z,79.80
2022-11-04T23:11:45.704Z,80.27
2022-11-04T23:14:36.424Z,79.70
2022-11-04T23:17:29.063Z,79.79
2022-11-04T23:19:55.652Z,79.85
2022-11-04T23:22:40.560Z,79.96
2022-11-04T23:25:09.876Z,80.27
2022-11-04T23:28:08.846Z,79.71
2022-11-04T23:30:38.457Z,79.99
2022-11-04T23:33:42.749Z,80.29
2022-11-04T23:36:27.837Z,80.17
2022-11-04T23:38:54.864Z,79.71
2022-11-04T23:41:43.181Z,79.55
2022-11-04T23:44:32.411Z,79.11
2022-11-04T23:47:20.377Z,79.68
2022-11-04T23:50:08.341Z,79.45
2022-11-04T23:52:56.785Z,79.64
2022-11-04T23:55:41.755Z,79.63
2022-11-04T23:58:27.669Z,79.47
